createdAt,value
2023-05-13T00:00:02.046Z,15.91
2023-05-13T00:02:49.900Z,15.87
2023-05-13T00:05:35.248Z,15.83
2023-05-13T00:08:20.761Z,15.82
2023-05-13T00:11:06.104Z,15.76
2023-05-13T00:13:51.382Z,15.76
2023-05-13T00:16:36.787Z,15.74
2023-05-13T00:19:21.821Z,15.68
2023-05-13T00:22:06.967Z,15.64
2023-05-13T00:24:52.066Z,15.61
2023-05-13T00:27:37.581Z,15.55
2023-05-13T00:30:23.201Z,15.53
2023-05-13T00:33:08.615Z,15.48
2023-05-13T00:35:53.977Z,15.41
2023-05-13T00:38:39.424Z,15.39
2023-05-13T00:41:24.869Z,15.36
2023-05-13T00:44:10.043Z,15.34
2023-05-13T00:46:55.093Z,15.32
2023-05-13T00:49:40.386Z,15.30
2023-05-13T00:52:25.715Z,15.32
2023-05-13T00:55:11.672Z,15.30
2023-05-13T00:57:57.116Z,15.33
2023-05-13T01:01:02.164Z,15.33
2023-05-13T01:03:54.923Z,15.32
2023-05-13T01:07:01.299Z,15.30
2023-05-13T01:10:08.091Z,15.28
2023-05-13T01:12:58.488Z,15.25
2023-05-13T01:15:56.513Z,15.24
2023-05-13T01:18:52.675Z,15.22
2023-05-13T01:21:39.743Z,15.18
2023-05-13T01:24:24.855Z,15.16
2023-05-13T01:27:10.343Z,15.13
2023-05-13T01:29:56.616Z,15.12
2023-05-13T01:32:46.996Z,15.05
2023-05-13T01:35:34.727Z,15.02
2023-05-13T01:38:20.754Z,15.00
2023-05-13T01:41:09.789Z,14.97
2023-05-13T01:43:55.591Z,14.98
2023-05-13T01:46:42.557Z,14.96
2023-05-13T01:49:27.999Z,14.93
2023-05-13T01:52:13.369Z,14.86
2023-05-13T01:54:59.187Z,14.88
2023-05-13T01:57:44.491Z,14.83
2023-05-13T02:00:29.971Z,14.78
2023-05-13T02:03:15.311Z,14.77
2023-05-13T02:06:00.551Z,14.74
2023-05-13T02:08:46.054Z,14.74
2023-05-13T02:11:32.059Z,14.75
2023-05-13T02:14:17.668Z,14.77
2023-05-13T02:17:03.330Z,14.76
2023-05-13T02:19:48.798Z,14.74
2023-05-13T02:22:34.074Z,14.71
2023-05-13T02:25:19.401Z,14.64
2023-05-13T02:28:04.936Z,14.60
2023-05-13T02:30:51.241Z,14.59
2023-05-13T02:33:36.678Z,14.58
2023-05-13T02:36:22.222Z,14.51
2023-05-13T02:39:08.380Z,14.51
2023-05-13T02:41:57.911Z,14.48
2023-05-13T02:44:47.317Z,14.47
2023-05-13T02:47:34.271Z,14.42
2023-05-13T02:50:23.452Z,14.42
2023-05-13T02:53:09.127Z,14.40
2023-05-13T02:55:58.174Z,14.42
2023-05-13T02:58:44.740Z,14.46
2023-05-13T03:01:30.089Z,14.48
2023-05-13T03:04:15.445Z,14.47
2023-05-13T03:07:00.833Z,14.48
2023-05-13T03:09:46.353Z,14.46
2023-05-13T03:12:32.090Z,14.44
2023-05-13T03:15:17.251Z,14.42
2023-05-13T03:18:02.806Z,14.38
2023-05-13T03:20:48.239Z,14.34
2023-05-13T03:23:33.746Z,14.34
2023-05-13T03:26:19.923Z,14.28
2023-05-13T03:29:05.914Z,14.28
2023-05-13T03:31:52.989Z,14.25
2023-05-13T03:34:38.927Z,14.19
2023-05-13T03:37:24.666Z,14.19
2023-05-13T03:40:10.235Z,14.10
2023-05-13T03:42:55.656Z,14.06
2023-05-13T03:45:47.502Z,14.06
2023-05-13T03:48:36.076Z,14.09
2023-05-13T03:51:21.997Z,14.07
2023-05-13T03:54:08.076Z,14.08
2023-05-13T03:56:53.457Z,14.07
2023-05-13T03:59:38.563Z,14.06
2023-05-13T04:02:24.088Z,14.05
2023-05-13T04:05:09.796Z,14.05
2023-05-13T04:07:54.738Z,14.01
2023-05-13T04:10:42.250Z,14.00
2023-05-13T04:13:27.481Z,14.01
2023-05-13T04:16:12.682Z,14.04
2023-05-13T04:18:57.882Z,14.03
2023-05-13T04:21:43.293Z,14.02
2023-05-13T04:24:28.730Z,14.03
2023-05-13T04:27:14.022Z,14.05
2023-05-13T04:29:59.381Z,14.09
2023-05-13T04:32:46.073Z,14.11
2023-05-13T04:35:31.661Z,14.19
2023-05-13T04:38:19.446Z,14.22
2023-05-13T04:41:05.352Z,14.27
2023-05-13T04:43:56.090Z,14.30
2023-05-13T04:46:43.214Z,14.34
2023-05-13T04:49:28.613Z,14.29
2023-05-13T04:52:14.522Z,14.34
2023-05-13T04:54:59.648Z,14.34
2023-05-13T04:57:46.148Z,14.41
2023-05-13T05:00:31.796Z,14.45
2023-05-13T05:03:16.899Z,14.46
2023-05-13T05:06:02.262Z,14.48
2023-05-13T05:08:48.006Z,14.50
2023-05-13T05:11:33.500Z,14.57
2023-05-13T05:14:20.217Z,14.65
2023-05-13T05:17:07.815Z,14.75
2023-05-13T05:19:53.640Z,14.90
2023-05-13T05:22:38.915Z,14.90
2023-05-13T05:25:24.863Z,14.87
2023-05-13T05:28:10.158Z,14.94
2023-05-13T05:30:59.622Z,14.98
2023-05-13T05:33:46.470Z,15.02
2023-05-13T05:36:31.732Z,15.08
2023-05-13T05:39:17.116Z,15.11
2023-05-13T05:42:02.576Z,15.26
2023-05-13T05:44:48.096Z,15.30
2023-05-13T05:47:33.252Z,15.39
2023-05-13T05:50:18.594Z,15.42
2023-05-13T05:53:04.758Z,15.53
2023-05-13T05:55:52.949Z,15.48
2023-05-13T05:58:39.132Z,15.44
2023-05-13T06:01:24.352Z,15.58
2023-05-13T06:04:09.695Z,15.80
2023-05-13T06:06:54.999Z,15.86
2023-05-13T06:09:41.041Z,15.93
2023-05-13T06:12:26.745Z,16.07
2023-05-13T06:15:12.240Z,16.06
2023-05-13T06:17:57.824Z,16.14
2023-05-13T06:20:43.545Z,16.28
2023-05-13T06:23:28.979Z,16.41
2023-05-13T06:26:14.476Z,16.43
2023-05-13T06:28:59.522Z,16.56
2023-05-13T06:31:45.751Z,16.55
2023-05-13T06:34:31.285Z,16.63
2023-05-13T06:37:17.803Z,16.80
2023-05-13T06:40:04.187Z,16.82
2023-05-13T06:42:53.644Z,16.80
2023-05-13T06:45:46.474Z,16.97
2023-05-13T06:48:32.003Z,16.89
2023-05-13T06:51:17.567Z,16.92
2023-05-13T06:54:02.938Z,17.03
2023-05-13T06:56:48.010Z,17.19
2023-05-13T06:59:33.564Z,17.20
2023-05-13T07:02:18.483Z,17.37
2023-05-13T07:05:04.887Z,17.49
2023-05-13T07:07:53.546Z,17.67
2023-05-13T07:10:38.893Z,17.63
2023-05-13T07:13:24.614Z,17.70
2023-05-13T07:16:09.905Z,17.81
2023-05-13T07:18:55.238Z,18.00
2023-05-13T07:21:40.585Z,17.98
2023-05-13T07:24:26.075Z,18.04
2023-05-13T07:27:11.734Z,17.99
2023-05-13T07:29:56.815Z,18.22
2023-05-13T07:32:42.435Z,18.39
2023-05-13T07:35:27.463Z,18.38
2023-05-13T07:38:13.273Z,18.43
2023-05-13T07:40:59.069Z,18.38
2023-05-13T07:43:44.390Z,18.51
2023-05-13T07:46:29.870Z,18.67
2023-05-13T07:49:15.259Z,18.64
2023-05-13T07:52:01.093Z,18.82
2023-05-13T07:54:46.400Z,18.85
2023-05-13T07:57:31.542Z,18.88
2023-05-13T08:00:17.386Z,19.10
2023-05-13T08:03:03.069Z,18.92
2023-05-13T08:05:48.611Z,18.54
2023-05-13T08:08:34.065Z,18.64
2023-05-13T08:11:19.477Z,18.66
2023-05-13T08:14:05.621Z,18.77
2023-05-13T08:16:50.956Z,18.86
2023-05-13T08:19:36.626Z,19.01
2023-05-13T08:22:22.158Z,18.97
2023-05-13T08:25:07.535Z,19.10
2023-05-13T08:27:53.646Z,19.30
2023-05-13T08:30:42.004Z,19.20
2023-05-13T08:33:27.048Z,18.90
2023-05-13T08:36:12.702Z,19.03
2023-05-13T08:38:57.744Z,19.03
2023-05-13T08:41:44.875Z,19.01
2023-05-13T08:44:32.531Z,19.13
2023-05-13T08:47:38.749Z,19.27
2023-05-13T08:50:25.519Z,19.48
2023-05-13T08:53:12.955Z,19.72
2023-05-13T08:55:59.093Z,19.84
2023-05-13T08:58:44.447Z,19.86
2023-05-13T09:01:30.801Z,19.88
2023-05-13T09:04:16.408Z,19.84
2023-05-13T09:07:02.619Z,19.65
2023-05-13T09:09:48.234Z,19.54
2023-05-13T09:12:46.734Z,19.72
2023-05-13T09:15:33.171Z,19.60
2023-05-13T09:18:19.437Z,19.73
2023-05-13T09:21:26.005Z,19.74
2023-05-13T09:24:21.288Z,19.78
2023-05-13T09:27:06.555Z,19.86
2023-05-13T09:30:01.221Z,20.15
2023-05-13T09:33:05.170Z,19.90
2023-05-13T09:35:52.795Z,19.81
2023-05-13T09:38:39.107Z,19.98
2023-05-13T09:41:27.137Z,20.13
2023-05-13T09:44:13.394Z,20.14
2023-05-13T09:46:58.938Z,20.31
2023-05-13T09:49:53.101Z,20.58
2023-05-13T09:52:38.869Z,20.63
2023-05-13T09:55:28.963Z,20.88
2023-05-13T09:58:14.874Z,20.98
2023-05-13T10:01:00.453Z,21.09
2023-05-13T10:03:46.224Z,21.16
2023-05-13T10:06:33.158Z,21.26
2023-05-13T10:09:24.197Z,21.26
2023-05-13T10:12:14.218Z,21.40
2023-05-13T10:15:02.571Z,21.32
2023-05-13T10:17:49.902Z,21.43
2023-05-13T10:20:35.297Z,21.33
2023-05-13T10:23:22.521Z,21.41
2023-05-13T10:26:08.262Z,21.41
2023-05-13T10:28:55.591Z,21.44
2023-05-13T10:31:41.892Z,21.59
2023-05-13T10:34:28.624Z,21.64
2023-05-13T10:37:13.601Z,21.34
2023-05-13T10:40:16.477Z,21.49
2023-05-13T10:43:21.675Z,21.59
2023-05-13T10:46:11.401Z,21.88
2023-05-13T10:49:01.541Z,21.73
2023-05-13T10:51:48.325Z,21.53
2023-05-13T10:54:39.635Z,21.14
2023-05-13T10:58:06.449Z,21.13
2023-05-13T11:00:52.095Z,21.04
2023-05-13T11:03:39.997Z,21.03
2023-05-13T11:06:37.477Z,21.18
2023-05-13T11:09:22.880Z,21.24
2023-05-13T11:12:14.958Z,21.06
2023-05-13T11:15:00.545Z,21.19
2023-05-13T11:17:45.929Z,21.26
2023-05-13T11:20:37.384Z,21.07
2023-05-13T11:23:33.347Z,21.18
2023-05-13T11:26:21.902Z,21.35
2023-05-13T11:29:07.832Z,21.30
2023-05-13T11:32:00.310Z,21.32
2023-05-13T11:34:52.816Z,21.24
2023-05-13T11:37:43.732Z,21.39
2023-05-13T11:40:33.253Z,21.40
2023-05-13T11:43:21.540Z,21.50
2023-05-13T11:46:07.907Z,21.58
2023-05-13T11:48:53.313Z,21.58
2023-05-13T11:51:38.985Z,21.58
2023-05-13T11:54:24.253Z,21.51
2023-05-13T11:57:23.988Z,21.57
2023-05-13T12:00:10.678Z,21.49
2023-05-13T12:02:56.672Z,21.49
2023-05-13T12:05:44.335Z,21.59
2023-05-13T12:08:30.128Z,21.52
2023-05-13T12:11:15.576Z,21.68
2023-05-13T12:14:01.700Z,21.71
2023-05-13T12:16:47.442Z,21.85
2023-05-13T12:19:33.040Z,21.89
2023-05-13T12:22:21.967Z,21.96
2023-05-13T12:25:35.441Z,21.84
2023-05-13T12:28:21.483Z,21.92
2023-05-13T12:31:06.881Z,21.71
2023-05-13T12:33:52.397Z,21.53
2023-05-13T12:36:38.912Z,21.57
2023-05-13T12:39:24.602Z,21.38
2023-05-13T12:42:18.189Z,21.35
2023-05-13T12:45:04.046Z,21.60
2023-05-13T12:47:50.607Z,21.75
2023-05-13T12:50:35.707Z,21.62
2023-05-13T12:53:21.244Z,21.87
2023-05-13T12:56:07.308Z,22.07
2023-05-13T12:58:54.086Z,21.93
2023-05-13T13:01:39.633Z,21.90
2023-05-13T13:04:24.994Z,21.82
2023-05-13T13:07:14.559Z,21.88
2023-05-13T13:10:00.174Z,21.75
2023-05-13T13:12:45.856Z,21.73
2023-05-13T13:15:31.502Z,21.94
2023-05-13T13:18:16.698Z,22.11
2023-05-13T13:21:02.140Z,22.05
2023-05-13T13:26:59.719Z,21.92
2023-05-13T13:36:27.969Z,21.93
2023-05-13T13:39:36.955Z,22.10
2023-05-13T13:46:07.470Z,22.30
2023-05-13T13:48:53.008Z,22.06
2023-05-13T13:51:38.518Z,22.03
2023-05-13T13:54:23.915Z,22.11
2023-05-13T13:57:09.205Z,21.96
2023-05-13T13:59:54.564Z,22.00
2023-05-13T14:02:40.769Z,21.85
2023-05-13T14:05:26.091Z,21.59
2023-05-13T14:08:14.446Z,21.61
2023-05-13T14:10:59.536Z,21.66
2023-05-13T14:13:45.045Z,21.83
2023-05-13T14:16:31.111Z,22.00
2023-05-13T14:19:18.816Z,22.23
2023-05-13T14:22:04.445Z,22.30
2023-05-13T14:24:52.734Z,22.22
2023-05-13T14:27:37.776Z,22.30
2023-05-13T14:30:23.522Z,22.36
2023-05-13T14:33:09.648Z,22.45
2023-05-13T14:35:55.412Z,22.40
2023-05-13T14:38:41.964Z,22.41
2023-05-13T14:41:31.288Z,22.31
2023-05-13T14:44:16.445Z,22.27
2023-05-13T14:47:01.720Z,22.23
2023-05-13T14:49:47.225Z,22.32
2023-05-13T14:52:32.725Z,22.45
2023-05-13T14:55:18.198Z,22.50
2023-05-13T14:58:03.602Z,22.48
2023-05-13T15:00:49.111Z,22.36
2023-05-13T15:03:34.332Z,22.34
2023-05-13T15:06:20.089Z,22.39
2023-05-13T15:09:06.130Z,22.17
2023-05-13T15:11:51.441Z,22.18
2023-05-13T15:14:36.888Z,22.18
2023-05-13T15:17:22.440Z,22.30
2023-05-13T15:20:08.221Z,22.06
2023-05-13T15:22:53.329Z,22.09
2023-05-13T15:25:38.778Z,22.17
2023-05-13T15:28:23.919Z,22.28
2023-05-13T15:31:09.385Z,22.40
2023-05-13T15:33:55.153Z,22.50
2023-05-13T15:36:40.693Z,22.41
2023-05-13T15:39:25.965Z,22.47
2023-05-13T15:42:11.542Z,22.38
2023-05-13T15:44:56.851Z,22.27
2023-05-13T15:47:42.303Z,22.36
2023-05-13T15:50:27.620Z,22.38
2023-05-13T15:53:13.176Z,22.44
2023-05-13T15:55:58.654Z,22.42
2023-05-13T15:58:43.707Z,22.32
2023-05-13T16:01:29.298Z,22.18
2023-05-13T16:04:14.425Z,21.88
2023-05-13T16:06:59.831Z,21.51
2023-05-13T16:09:45.620Z,21.39
2023-05-13T16:12:31.438Z,21.24
2023-05-13T16:15:16.682Z,21.04
2023-05-13T16:18:01.775Z,20.95
2023-05-13T16:20:47.610Z,20.85
2023-05-13T16:23:32.972Z,20.73
2023-05-13T16:26:23.817Z,20.68
2023-05-13T16:29:09.206Z,20.63
2023-05-13T16:31:58.235Z,20.61
2023-05-13T16:34:43.424Z,20.61
2023-05-13T16:37:29.769Z,20.62
2023-05-13T16:40:15.429Z,20.59
2023-05-13T16:43:03.652Z,20.59
2023-05-13T16:45:48.985Z,20.49
2023-05-13T16:48:35.165Z,20.38
2023-05-13T16:51:20.252Z,20.41
2023-05-13T16:54:06.479Z,20.35
2023-05-13T16:56:51.937Z,20.40
2023-05-13T16:59:37.193Z,20.41
2023-05-13T17:02:22.485Z,20.43
2023-05-13T17:05:07.928Z,20.49
2023-05-13T17:07:55.463Z,20.51
2023-05-13T17:10:40.513Z,20.46
2023-05-13T17:13:25.993Z,20.35
2023-05-13T17:16:11.668Z,20.31
2023-05-13T17:18:59.093Z,20.28
2023-05-13T17:21:45.879Z,20.26
2023-05-13T17:24:31.611Z,20.20
2023-05-13T17:27:21.656Z,20.17
2023-05-13T17:30:08.171Z,20.17
2023-05-13T17:32:53.859Z,20.16
2023-05-13T17:35:42.930Z,20.17
2023-05-13T17:38:29.460Z,20.13
2023-05-13T17:41:17.899Z,20.06
2023-05-13T17:44:03.416Z,20.00
2023-05-13T17:46:48.532Z,19.89
2023-05-13T17:49:34.457Z,19.80
2023-05-13T17:52:19.816Z,19.77
2023-05-13T17:55:05.841Z,19.75
2023-05-13T17:57:51.024Z,19.67
2023-05-13T18:00:36.396Z,19.66
2023-05-13T18:03:21.865Z,19.63
2023-05-13T18:06:07.735Z,19.60
2023-05-13T18:08:53.970Z,19.54
2023-05-13T18:11:39.494Z,19.45
2023-05-13T18:14:24.893Z,19.34
2023-05-13T18:17:10.190Z,19.27
2023-05-13T18:19:55.808Z,19.20
2023-05-13T18:22:41.127Z,19.12
2023-05-13T18:25:26.524Z,19.01
2023-05-13T18:28:12.312Z,18.87
2023-05-13T18:30:59.936Z,18.75
2023-05-13T18:33:45.493Z,18.65
2023-05-13T18:36:30.888Z,18.57
2023-05-13T18:39:16.396Z,18.50
2023-05-13T18:42:01.530Z,18.42
2023-05-13T18:44:46.864Z,18.36
2023-05-13T18:47:32.154Z,18.29
2023-05-13T18:50:17.619Z,18.24
2023-05-13T18:53:03.246Z,18.19
2023-05-13T18:55:48.648Z,18.11
2023-05-13T18:58:33.986Z,18.05
2023-05-13T19:01:19.834Z,17.99
2023-05-13T19:04:05.392Z,17.94
2023-05-13T19:06:53.818Z,17.89
2023-05-13T19:09:38.822Z,17.85
2023-05-13T19:12:24.372Z,17.80
2023-05-13T19:15:09.801Z,17.76
2023-05-13T19:17:55.470Z,17.71
2023-05-13T19:20:41.133Z,17.67
2023-05-13T19:23:26.634Z,17.63
2023-05-13T19:26:12.181Z,17.59
2023-05-13T19:28:57.968Z,17.56
2023-05-13T19:31:43.156Z,17.53
2023-05-13T19:34:28.978Z,17.49
2023-05-13T19:37:14.450Z,17.43
2023-05-13T19:39:59.857Z,17.39
2023-05-13T19:42:47.452Z,17.36
2023-05-13T19:45:33.097Z,17.34
2023-05-13T19:48:18.601Z,17.30
2023-05-13T19:51:06.928Z,17.26
2023-05-13T19:53:52.412Z,17.20
2023-05-13T19:56:40.869Z,17.17
2023-05-13T19:59:26.032Z,17.11
2023-05-13T20:02:11.626Z,17.06
2023-05-13T20:04:57.423Z,17.03
2023-05-13T20:07:42.681Z,16.98
2023-05-13T20:10:28.682Z,16.95
2023-05-13T20:13:14.318Z,16.93
2023-05-13T20:15:59.468Z,16.88
2023-05-13T20:18:45.120Z,16.83
2023-05-13T20:21:30.856Z,16.83
2023-05-13T20:24:16.064Z,16.78
2023-05-13T20:27:01.596Z,16.76
2023-05-13T20:29:48.054Z,16.74
2023-05-13T20:32:33.543Z,16.69
2023-05-13T20:35:20.905Z,16.67
2023-05-13T20:38:07.375Z,16.61
2023-05-13T20:40:52.734Z,16.57
2023-05-13T20:43:38.557Z,16.53
2023-05-13T20:46:23.893Z,16.50
2023-05-13T20:49:12.760Z,16.44
2023-05-13T20:52:04.571Z,16.41
2023-05-13T20:54:51.204Z,16.41
2023-05-13T20:57:36.877Z,16.37
2023-05-13T21:00:24.115Z,16.35
2023-05-13T21:03:09.791Z,16.33
2023-05-13T21:05:55.448Z,16.31
2023-05-13T21:08:40.619Z,16.30
2023-05-13T21:11:26.246Z,16.31
2023-05-13T21:14:11.560Z,16.30
2023-05-13T21:16:56.675Z,16.29
2023-05-13T21:19:42.148Z,16.27
2023-05-13T21:22:27.491Z,16.24
2023-05-13T21:25:13.632Z,16.23
2023-05-13T21:28:00.284Z,16.22
2023-05-13T21:30:45.561Z,16.21
2023-05-13T21:33:30.747Z,16.18
2023-05-13T21:36:16.125Z,16.18
2023-05-13T21:39:01.312Z,16.16
2023-05-13T21:41:47.585Z,16.15
2023-05-13T21:44:33.059Z,16.12
2023-05-13T21:47:18.688Z,16.12
2023-05-13T21:50:04.413Z,16.10
2023-05-13T21:52:49.966Z,16.12
2023-05-13T21:55:37.642Z,16.13
2023-05-13T21:58:23.688Z,16.13
2023-05-13T22:01:09.151Z,16.13
2023-05-13T22:03:54.366Z,16.12
2023-05-13T22:06:39.513Z,16.13
2023-05-13T22:09:25.016Z,16.13
2023-05-13T22:12:10.373Z,16.15
2023-05-13T22:14:56.034Z,16.13
2023-05-13T22:17:41.189Z,16.11
2023-05-13T22:20:26.724Z,16.09
2023-05-13T22:23:11.826Z,16.03
2023-05-13T22:25:57.098Z,15.99
2023-05-13T22:28:42.464Z,15.96
2023-05-13T22:31:27.470Z,15.94
2023-05-13T22:34:13.105Z,15.89
2023-05-13T22:36:58.274Z,15.88
2023-05-13T22:39:43.781Z,15.87
2023-05-13T22:42:29.060Z,15.83
2023-05-13T22:45:14.205Z,15.80
2023-05-13T22:48:02.073Z,15.78
2023-05-13T22:50:50.684Z,15.77
2023-05-13T22:53:35.881Z,15.76
2023-05-13T22:56:21.828Z,15.76
2023-05-13T22:59:07.354Z,15.75
2023-05-13T23:01:52.529Z,15.74
2023-05-13T23:04:38.024Z,15.73
2023-05-13T23:07:23.319Z,15.72
2023-05-13T23:10:09.320Z,15.70
2023-05-13T23:12:54.580Z,15.68
2023-05-13T23:15:40.098Z,15.66
2023-05-13T23:18:25.332Z,15.64
2023-05-13T23:21:10.622Z,15.62
2023-05-13T23:24:00.010Z,15.59
2023-05-13T23:26:47.283Z,15.55
2023-05-13T23:29:32.706Z,15.48
2023-05-13T23:32:19.397Z,15.44
2023-05-13T23:35:05.274Z,15.40
2023-05-13T23:37:50.358Z,15.35
2023-05-13T23:40:36.238Z,15.31
2023-05-13T23:43:21.608Z,15.28
2023-05-13T23:46:06.825Z,15.26
2023-05-13T23:48:52.316Z,15.23
2023-05-13T23:51:38.450Z,15.17
2023-05-13T23:54:24.168Z,15.14
2023-05-13T23:57:09.139Z,15.12
2023-05-13T23:59:54.770Z,15.09
